sensor_id;sensor_type;location;lat;lon;timestamp;pressure;altitude;pressure_sealevel;temperature;humidity
64933;BME280;51446;53.850;10.662;2023-02-10T00:01:28;103002.16;;;2.40;100.00
64933;BME280;51446;53.850;10.662;2023-02-10T00:03:54;102994.13;;;2.27;100.00
64933;BME280;51446;53.850;10.662;2023-02-10T00:06:21;103010.56;;;2.27;100.00
64933;BME280;51446;53.850;10.662;2023-02-10T00:08:51;103013.41;;;2.40;100.00
64933;BME280;51446;53.850;10.662;2023-02-10T00:11:17;103013.53;;;2.42;100.00
64933;BME280;51446;53.850;10.662;2023-02-10T00:13:43;103025.06;;;2.46;100.00
64933;BME280;51446;53.850;10.662;2023-02-10T00:16:14;103024.44;;;2.48;100.00
64933;BME280;51446;53.850;10.662;2023-02-10T00:18:39;103012.38;;;2.49;100.00
64933;BME280;51446;53.850;10.662;2023-02-10T00:21:12;103027.03;;;2.48;100.00
64933;BME280;51446;53.850;10.662;2023-02-10T00:23:37;103030.00;;;2.53;100.00
64933;BME280;51446;53.850;10.662;2023-02-10T00:26:07;103021.19;;;2.61;100.00
64933;BME280;51446;53.850;10.662;2023-02-10T00:28:33;103020.03;;;2.57;100.00
64933;BME280;51446;53.850;10.662;2023-02-10T00:30:59;103025.72;;;2.53;100.00
64933;BME280;51446;53.850;10.662;2023-02-10T00:33:25;103025.59;;;2.52;100.00
64933;BME280;51446;53.850;10.662;2023-02-10T00:35:50;103032.84;;;2.56;100.00
64933;BME280;51446;53.850;10.662;2023-02-10T00:38:15;103037.75;;;2.53;100.00
64933;BME280;51446;53.850;10.662;2023-02-10T00:40:40;103028.44;;;2.55;100.00
64933;BME280;51446;53.850;10.662;2023-02-10T00:43:06;103020.16;;;2.80;100.00
64933;BME280;51446;53.850;10.662;2023-02-10T00:45:31;103019.75;;;2.75;100.00
64933;BME280;51446;53.850;10.662;2023-02-10T00:47:56;103021.59;;;2.66;100.00
64933;BME280;51446;53.850;10.662;2023-02-10T00:50:21;103015.50;;;2.65;100.00
64933;BME280;51446;53.850;10.662;2023-02-10T00:52:47;103023.66;;;2.70;100.00
64933;BME280;51446;53.850;10.662;2023-02-10T00:55:12;103022.75;;;2.80;100.00
64933;BME280;51446;53.850;10.662;2023-02-10T00:57:37;103023.66;;;2.70;100.00
64933;BME280;51446;53.850;10.662;2023-02-10T01:00:03;103018.09;;;2.65;100.00
64933;BME280;51446;53.850;10.662;2023-02-10T01:02:29;103026.00;;;2.77;100.00
64933;BME280;51446;53.850;10.662;2023-02-10T01:04:54;103027.66;;;2.66;100.00
64933;BME280;51446;53.850;10.662;2023-02-10T01:07:19;103022.06;;;2.82;100.00
64933;BME280;51446;53.850;10.662;2023-02-10T01:09:44;103023.91;;;2.73;100.00
64933;BME280;51446;53.850;10.662;2023-02-10T01:12:09;103033.13;;;2.80;100.00
64933;BME280;51446;53.850;10.662;2023-02-10T01:14:35;103032.31;;;2.70;100.00
64933;BME280;51446;53.850;10.662;2023-02-10T01:17:00;103026.25;;;2.70;100.00
64933;BME280;51446;53.850;10.662;2023-02-10T01:19:25;103027.03;;;2.69;100.00
64933;BME280;51446;53.850;10.662;2023-02-10T01:21:51;103025.22;;;2.78;100.00
64933;BME280;51446;53.850;10.662;2023-02-10T01:24:16;103031.03;;;2.86;100.00
64933;BME280;51446;53.850;10.662;2023-02-10T01:26:41;103021.56;;;2.76;100.00
64933;BME280;51446;53.850;10.662;2023-02-10T01:29:07;103017.56;;;2.90;100.00
64933;BME280;51446;53.850;10.662;2023-02-10T01:31:32;103020.66;;;2.86;100.00
64933;BME280;51446;53.850;10.662;2023-02-10T01:33:57;103018.59;;;2.82;100.00
64933;BME280;51446;53.850;10.662;2023-02-10T01:36:23;103022.34;;;2.75;100.00
64933;BME280;51446;53.850;10.662;2023-02-10T01:38:50;103022.47;;;2.76;100.00
64933;BME280;51446;53.850;10.662;2023-02-10T01:41:18;103020.03;;;2.88;100.00
64933;BME280;51446;53.850;10.662;2023-02-10T01:46:30;103007.09;;;2.78;100.00
64933;BME280;51446;53.850;10.662;2023-02-10T01:49:00;103008.59;;;2.86;100.00
64933;BME280;51446;53.850;10.662;2023-02-10T01:51:31;103017.19;;;2.85;100.00
64933;BME280;51446;53.850;10.662;2023-02-10T01:53:58;103005.50;;;2.80;100.00
64933;BME280;51446;53.850;10.662;2023-02-10T01:56:24;103005.63;;;2.82;100.00
64933;BME280;51446;53.850;10.662;2023-02-10T01:58:49;103008.09;;;2.80;100.00
64933;BME280;51446;53.850;10.662;2023-02-10T02:01:15;103009.94;;;2.81;100.00
64933;BME280;51446;53.850;10.662;2023-02-10T02:03:41;103015.34;;;2.84;100.00
64933;BME280;51446;53.850;10.662;2023-02-10T02:06:07;103021.53;;;2.97;100.00
64933;BME280;51446;53.850;10.662;2023-02-10T02:08:33;103021.69;;;2.88;100.00
64933;BME280;51446;53.850;10.662;2023-02-10T02:11:12;103023.00;;;2.83;100.00
64933;BME280;51446;53.850;10.662;2023-02-10T02:13:53;103019.88;;;2.97;100.00
64933;BME280;51446;53.850;10.662;2023-02-10T02:17:02;103023.63;;;2.90;100.00
64933;BME280;51446;53.850;10.662;2023-02-10T02:20:06;103025.31;;;2.90;100.00
64933;BME280;51446;53.850;10.662;2023-02-10T02:28:29;103026.84;;;2.98;100.00
64933;BME280;51446;53.850;10.662;2023-02-10T02:31:38;103027.00;;;3.00;100.00
64933;BME280;51446;53.850;10.662;2023-02-10T02:34:21;103026.47;;;2.93;100.00
64933;BME280;51446;53.850;10.662;2023-02-10T02:36:55;103025.69;;;3.05;100.00
64933;BME280;51446;53.850;10.662;2023-02-10T02:39:22;103031.41;;;2.90;100.00
64933;BME280;51446;53.850;10.662;2023-02-10T02:41:59;103024.13;;;2.97;100.00
64933;BME280;51446;53.850;10.662;2023-02-10T02:44:30;103031.66;;;2.93;100.00
64933;BME280;51446;53.850;10.662;2023-02-10T02:47:27;103026.44;;;3.04;100.00
64933;BME280;51446;53.850;10.662;2023-02-10T02:58:32;103026.19;;;3.01;100.00
64933;BME280;51446;53.850;10.662;2023-02-10T03:00:58;103011.59;;;3.01;100.00
64933;BME280;51446;53.850;10.662;2023-02-10T03:03:30;103017.56;;;2.90;100.00
64933;BME280;51446;53.850;10.662;2023-02-10T03:05:58;103035.19;;;2.94;100.00
64933;BME280;51446;53.850;10.662;2023-02-10T03:08:24;103028.16;;;3.03;100.00
64933;BME280;51446;53.850;10.662;2023-02-10T03:10:49;103030.38;;;2.99;100.00
64933;BME280;51446;53.850;10.662;2023-02-10T03:13:14;103028.53;;;3.08;100.00
64933;BME280;51446;53.850;10.662;2023-02-10T03:15:39;103028.78;;;3.01;100.00
64933;BME280;51446;53.850;10.662;2023-02-10T03:18:05;103036.06;;;3.05;100.00
64933;BME280;51446;53.850;10.662;2023-02-10T03:20:30;103024.63;;;3.13;100.00
64933;BME280;51446;53.850;10.662;2023-02-10T03:22:55;103033.81;;;3.20;100.00
64933;BME280;51446;53.850;10.662;2023-02-10T03:25:20;103029.56;;;3.10;100.00
64933;BME280;51446;53.850;10.662;2023-02-10T03:27:46;103032.28;;;3.11;100.00
64933;BME280;51446;53.850;10.662;2023-02-10T03:30:11;103027.91;;;3.00;100.00
64933;BME280;51446;53.850;10.662;2023-02-10T03:32:36;103033.97;;;3.01;100.00
64933;BME280;51446;53.850;10.662;2023-02-10T03:35:02;103038.28;;;3.00;100.00
64933;BME280;51446;53.850;10.662;2023-02-10T03:37:27;103025.31;;;2.90;100.00
64933;BME280;51446;53.850;10.662;2023-02-10T03:39:52;103039.69;;;3.07;100.00
64933;BME280;51446;53.850;10.662;2023-02-10T03:42:17;103039.81;;;3.08;100.00
64933;BME280;51446;53.850;10.662;2023-02-10T03:44:43;103028.16;;;3.03;100.00
64933;BME280;51446;53.850;10.662;2023-02-10T03:47:08;103033.97;;;3.11;100.00
64933;BME280;51446;53.850;10.662;2023-02-10T03:49:33;103032.97;;;2.99;100.00
64933;BME280;51446;53.850;10.662;2023-02-10T03:51:59;103033.59;;;3.06;100.00
64933;BME280;51446;53.850;10.662;2023-02-10T03:54:24;103037.69;;;3.25;100.00
64933;BME280;51446;53.850;10.662;2023-02-10T03:56:49;103036.06;;;3.05;100.00
64933;BME280;51446;53.850;10.662;2023-02-10T03:59:15;103034.09;;;3.02;100.00
64933;BME280;51446;53.850;10.662;2023-02-10T04:01:40;103032.03;;;3.08;100.00
64933;BME280;51446;53.850;10.662;2023-02-10T04:04:05;103036.44;;;3.09;100.00
64933;BME280;51446;53.850;10.662;2023-02-10T04:06:30;103034.63;;;3.08;100.00
64933;BME280;51446;53.850;10.662;2023-02-10T04:08:56;103034.09;;;3.12;100.00
64933;BME280;51446;53.850;10.662;2023-02-10T04:11:21;103040.63;;;2.97;100.00
64933;BME280;51446;53.850;10.662;2023-02-10T04:13:46;103042.00;;;3.04;100.00
64933;BME280;51446;53.850;10.662;2023-02-10T04:16:14;103041.50;;;3.08;100.00
64933;BME280;51446;53.850;10.662;2023-02-10T04:18:40;103045.78;;;3.07;100.00
64933;BME280;51446;53.850;10.662;2023-02-10T04:21:08;103042.28;;;3.07;100.00
64933;BME280;51446;53.850;10.662;2023-02-10T04:23:34;103044.88;;;3.07;100.00
64933;BME280;51446;53.850;10.662;2023-02-10T04:25:59;103044.59;;;3.04;100.00
64933;BME280;51446;53.850;10.662;2023-02-10T04:28:25;103049.50;;;3.11;100.00
64933;BME280;51446;53.850;10.662;2023-02-10T04:30:52;103042.53;;;3.10;100.00
64933;BME280;51446;53.850;10.662;2023-02-10T04:33:18;103057.56;;;3.14;100.00
64933;BME280;51446;53.850;10.662;2023-02-10T04:35:47;103060.41;;;3.17;100.00
64933;BME280;51446;53.850;10.662;2023-02-10T04:38:12;103074.41;;;3.19;100.00
64933;BME280;51446;53.850;10.662;2023-02-10T04:40:37;103069.72;;;3.15;100.00
64933;BME280;51446;53.850;10.662;2023-02-10T04:43:04;103062.97;;;3.27;100.00
64933;BME280;51446;53.850;10.662;2023-02-10T04:45:29;103064.28;;;3.22;100.00
64933;BME280;51446;53.850;10.662;2023-02-10T04:47:55;103059.38;;;3.15;100.00
64933;BME280;51446;53.850;10.662;2023-02-10T04:50:20;103056.50;;;3.22;100.00
64933;BME280;51446;53.850;10.662;2023-02-10T04:52:45;103064.16;;;3.10;100.00
64933;BME280;51446;53.850;10.662;2023-02-10T04:55:10;103058.34;;;3.13;100.00
64933;BME280;51446;53.850;10.662;2023-02-10T04:57:36;103065.84;;;3.20;100.00
64933;BME280;51446;53.850;10.662;2023-02-10T05:00:01;103069.59;;;3.24;100.00
64933;BME280;51446;53.850;10.662;2023-02-10T05:02:26;103073.22;;;3.26;100.00
64933;BME280;51446;53.850;10.662;2023-02-10T05:04:52;103082.28;;;3.31;100.00
64933;BME280;51446;53.850;10.662;2023-02-10T05:07:17;103081.28;;;3.19;100.00
64933;BME280;51446;53.850;10.662;2023-02-10T05:09:42;103089.19;;;3.20;100.00
64933;BME280;51446;53.850;10.662;2023-02-10T05:12:07;103087.97;;;3.27;100.00
64933;BME280;51446;53.850;10.662;2023-02-10T05:14:32;103079.19;;;3.25;100.00
64933;BME280;51446;53.850;10.662;2023-02-10T05:16:58;103073.50;;;3.19;100.00
64933;BME280;51446;53.850;10.662;2023-02-10T05:19:23;103079.31;;;3.26;100.00
64933;BME280;51446;53.850;10.662;2023-02-10T05:21:48;103079.84;;;3.22;100.00
64933;BME280;51446;53.850;10.662;2023-02-10T05:24:14;103077.50;;;3.25;100.00
64933;BME280;51446;53.850;10.662;2023-02-10T05:26:39;103079.56;;;3.29;100.00
64933;BME280;51446;53.850;10.662;2023-02-10T05:29:04;103079.53;;;3.40;100.00
64933;BME280;51446;53.850;10.662;2023-02-10T05:31:29;103081.91;;;3.26;100.00
64933;BME280;51446;53.850;10.662;2023-02-10T05:33:55;103074.78;;;3.24;100.00
64933;BME280;51446;53.850;10.662;2023-02-10T05:36:20;103082.81;;;3.27;100.00
64933;BME280;51446;53.850;10.662;2023-02-10T05:38:46;103094.38;;;3.20;100.00
64933;BME280;51446;53.850;10.662;2023-02-10T05:41:30;103094.38;;;3.20;100.00
64933;BME280;51446;53.850;10.662;2023-02-10T05:43:55;103085.94;;;3.23;100.00
64933;BME280;51446;53.850;10.662;2023-02-10T05:46:20;103085.03;;;3.12;100.00
64933;BME280;51446;53.850;10.662;2023-02-10T05:48:45;103086.63;;;3.10;100.00
64933;BME280;51446;53.850;10.662;2023-02-10T05:51:11;103089.84;;;3.07;100.00
64933;BME280;51446;53.850;10.662;2023-02-10T05:53:36;103085.31;;;3.05;100.00
64933;BME280;51446;53.850;10.662;2023-02-10T05:56:01;103087.88;;;3.15;100.00
64933;BME280;51446;53.850;10.662;2023-02-10T05:58:26;103083.22;;;3.11;100.00
64933;BME280;51446;53.850;10.662;2023-02-10T06:00:52;103084.78;;;3.19;100.00
64933;BME280;51446;53.850;10.662;2023-02-10T06:03:18;103088.69;;;3.14;100.00
64933;BME280;51446;53.850;10.662;2023-02-10T06:05:43;103091.38;;;3.05;100.00
64933;BME280;51446;53.850;10.662;2023-02-10T06:08:10;103095.16;;;2.99;100.00
64933;BME280;51446;53.850;10.662;2023-02-10T06:10:35;103098.78;;;3.11;100.00
64933;BME280;51446;53.850;10.662;2023-02-10T06:13:01;103109.00;;;3.09;100.00
64933;BME280;51446;53.850;10.662;2023-02-10T06:15:26;103099.44;;;3.08;100.00
64933;BME280;51446;53.850;10.662;2023-02-10T06:17:51;103100.97;;;3.06;100.00
64933;BME280;51446;53.850;10.662;2023-02-10T06:20:16;103105.66;;;3.10;100.00
64933;BME280;51446;53.850;10.662;2023-02-10T06:22:42;103105.78;;;3.12;100.00
64933;BME280;51446;53.850;10.662;2023-02-10T06:25:07;103105.91;;;3.13;100.00
64933;BME280;51446;53.850;10.662;2023-02-10T06:27:32;103114.44;;;3.12;100.00
64933;BME280;51446;53.850;10.662;2023-02-10T06:29:57;103123.03;;;3.11;100.00
64933;BME280;51446;53.850;10.662;2023-02-10T06:32:23;103124.06;;;3.03;100.00
64933;BME280;51446;53.850;10.662;2023-02-10T06:34:48;103124.81;;;3.02;100.00
64933;BME280;51446;53.850;10.662;2023-02-10T06:37:13;103119.50;;;3.01;100.00
64933;BME280;51446;53.850;10.662;2023-02-10T06:39:38;103137.81;;;3.23;100.00
64933;BME280;51446;53.850;10.662;2023-02-10T06:42:05;103135.56;;;3.38;100.00
64933;BME280;51446;53.850;10.662;2023-02-10T06:44:30;103148.03;;;3.11;100.00
64933;BME280;51446;53.850;10.662;2023-02-10T06:46:55;103149.84;;;3.12;100.00
64933;BME280;51446;53.850;10.662;2023-02-10T06:49:21;103156.19;;;3.05;100.00
64933;BME280;51446;53.850;10.662;2023-02-10T06:51:46;103140.00;;;2.98;100.00
64933;BME280;51446;53.850;10.662;2023-02-10T06:54:11;103142.84;;;3.01;100.00
64933;BME280;51446;53.850;10.662;2023-02-10T06:56:36;103147.25;;;3.02;100.00
64933;BME280;51446;53.850;10.662;2023-02-10T06:59:02;103146.09;;;3.08;100.00
64933;BME280;51446;53.850;10.662;2023-02-10T07:01:27;103151.28;;;3.08;100.00
64933;BME280;51446;53.850;10.662;2023-02-10T07:03:53;103142.72;;;2.89;100.00
64933;BME280;51446;53.850;10.662;2023-02-10T07:06:18;103149.72;;;3.00;100.00
64933;BME280;51446;53.850;10.662;2023-02-10T07:08:44;103158.13;;;2.98;100.00
64933;BME280;51446;53.850;10.662;2023-02-10T07:11:09;103156.06;;;2.93;100.00
64933;BME280;51446;53.850;10.662;2023-02-10T07:13:35;103151.94;;;2.95;100.00
64933;BME280;51446;53.850;10.662;2023-02-10T07:16:00;103153.34;;;2.92;100.00
64933;BME280;51446;53.850;10.662;2023-02-10T07:18:25;103152.97;;;3.08;100.00
64933;BME280;51446;53.850;10.662;2023-02-10T07:20:52;103154.53;;;3.06;100.00
64933;BME280;51446;53.850;10.662;2023-02-10T07:23:18;103152.97;;;2.98;100.00
64933;BME280;51446;53.850;10.662;2023-02-10T07:25:43;103168.13;;;3.03;100.00
64933;BME280;51446;53.850;10.662;2023-02-10T07:28:08;103163.72;;;3.02;100.00
64933;BME280;51446;53.850;10.662;2023-02-10T07:30:34;103181.09;;;3.13;100.00
64933;BME280;51446;53.850;10.662;2023-02-10T07:32:59;103183.03;;;3.26;100.00
64933;BME280;51446;53.850;10.662;2023-02-10T07:35:25;103183.41;;;3.31;100.00
64933;BME280;51446;53.850;10.662;2023-02-10T07:37:50;103197.97;;;3.29;100.00
64933;BME280;51446;53.850;10.662;2023-02-10T07:40:15;103195.88;;;3.25;100.00
64933;BME280;51446;53.850;10.662;2023-02-10T07:42:41;103194.59;;;3.30;100.00
64933;BME280;51446;53.850;10.662;2023-02-10T07:45:06;103195.25;;;3.17;100.00
64933;BME280;51446;53.850;10.662;2023-02-10T07:47:31;103194.19;;;3.25;100.00
64933;BME280;51446;53.850;10.662;2023-02-10T07:49:57;103189.91;;;3.26;100.00
64933;BME280;51446;53.850;10.662;2023-02-10T07:52:22;103195.50;;;3.30;100.00
64933;BME280;51446;53.850;10.662;2023-02-10T07:54:48;103194.22;;;3.36;100.00
64933;BME280;51446;53.850;10.662;2023-02-10T07:57:13;103201.56;;;3.41;100.00
64933;BME280;51446;53.850;10.662;2023-02-10T07:59:38;103192.50;;;3.46;100.00
64933;BME280;51446;53.850;10.662;2023-02-10T08:02:05;103194.59;;;3.40;100.00
64933;BME280;51446;53.850;10.662;2023-02-10T08:04:31;103194.03;;;3.34;100.00
64933;BME280;51446;53.850;10.662;2023-02-10T08:06:56;103201.06;;;3.35;100.00
64933;BME280;51446;53.850;10.662;2023-02-10T08:09:22;103194.34;;;3.37;100.00
64933;BME280;51446;53.850;10.662;2023-02-10T08:11:47;103190.28;;;3.41;100.00
64933;BME280;51446;53.850;10.662;2023-02-10T08:14:13;103199.50;;;3.47;100.00
64933;BME280;51446;53.850;10.662;2023-02-10T08:16:38;103202.63;;;3.43;100.00
64933;BME280;51446;53.850;10.662;2023-02-10T08:19:03;103198.22;;;3.32;100.00
64933;BME280;51446;53.850;10.662;2023-02-10T08:21:28;103196.13;;;3.48;100.00
64933;BME280;51446;53.850;10.662;2023-02-10T08:23:54;103198.59;;;3.57;100.00
64933;BME280;51446;53.850;10.662;2023-02-10T08:26:23;103202.97;;;3.69;100.00
64933;BME280;51446;53.850;10.662;2023-02-10T08:28:49;103206.88;;;3.63;100.00
64933;BME280;51446;53.850;10.662;2023-02-10T08:31:15;103204.31;;;3.53;100.00
64933;BME280;51446;53.850;10.662;2023-02-10T08:33:40;103203.66;;;3.66;100.00
64933;BME280;51446;53.850;10.662;2023-02-10T08:36:08;103197.91;;;3.60;100.00
64933;BME280;51446;53.850;10.662;2023-02-10T08:38:34;103193.66;;;3.60;100.00
64933;BME280;51446;53.850;10.662;2023-02-10T08:41:00;103195.47;;;3.72;100.00
64933;BME280;51446;53.850;10.662;2023-02-10T08:43:25;103191.03;;;3.71;100.00
64933;BME280;51446;53.850;10.662;2023-02-10T08:45:50;103198.47;;;3.66;100.00
64933;BME280;51446;53.850;10.662;2023-02-10T08:48:16;103203.66;;;3.66;100.00
64933;BME280;51446;53.850;10.662;2023-02-10T08:50:42;103199.19;;;3.86;100.00
64933;BME280;51446;53.850;10.662;2023-02-10T08:53:07;103195.16;;;3.89;100.00
64933;BME280;51446;53.850;10.662;2023-02-10T08:55:33;103197.34;;;3.85;100.00
64933;BME280;51446;53.850;10.662;2023-02-10T08:57:58;103194.38;;;3.80;100.00
64933;BME280;51446;53.850;10.662;2023-02-10T09:00:23;103191.53;;;3.77;100.00
64933;BME280;51446;53.850;10.662;2023-02-10T09:02:49;103209.31;;;3.82;100.00
64933;BME280;51446;53.850;10.662;2023-02-10T09:05:15;103202.28;;;4.02;100.00
64933;BME280;51446;53.850;10.662;2023-02-10T09:07:40;103197.06;;;4.02;100.00
64933;BME280;51446;53.850;10.662;2023-02-10T09:10:06;103206.38;;;4.10;100.00
64933;BME280;51446;53.850;10.662;2023-02-10T09:12:35;103199.41;;;4.31;100.00
64933;BME280;51446;53.850;10.662;2023-02-10T09:15:00;103205.06;;;4.15;100.00
64933;BME280;51446;53.850;10.662;2023-02-10T09:17:25;103201.28;;;4.22;100.00
64933;BME280;51446;53.850;10.662;2023-02-10T09:19:50;103208.84;;;4.09;100.00
64933;BME280;51446;53.850;10.662;2023-02-10T09:22:16;103204.06;;;4.13;100.00
64933;BME280;51446;53.850;10.662;2023-02-10T09:24:43;103205.47;;;4.10;100.00
64933;BME280;51446;53.850;10.662;2023-02-10T09:27:12;103208.16;;;4.22;100.00
64933;BME280;51446;53.850;10.662;2023-02-10T09:29:37;103198.53;;;4.31;100.00
64933;BME280;51446;53.850;10.662;2023-02-10T09:32:02;103201.63;;;4.59;100.00
64933;BME280;51446;53.850;10.662;2023-02-10T09:34:28;103196.34;;;4.47;100.00
64933;BME280;51446;53.850;10.662;2023-02-10T09:36:55;103199.53;;;4.65;100.00
64933;BME280;51446;53.850;10.662;2023-02-10T09:39:22;103206.22;;;4.51;100.00
64933;BME280;51446;53.850;10.662;2023-02-10T09:41:57;103200.53;;;4.67;100.00
64933;BME280;51446;53.850;10.662;2023-02-10T09:44:29;103206.50;;;4.66;100.00
64933;BME280;51446;53.850;10.662;2023-02-10T09:47:12;103205.97;;;4.71;100.00
64933;BME280;51446;53.850;10.662;2023-02-10T09:52:49;103197.91;;;5.12;100.00
64933;BME280;51446;53.850;10.662;2023-02-10T09:55:36;103206.63;;;5.12;100.00
64933;BME280;51446;53.850;10.662;2023-02-10T09:58:23;103212.81;;;5.48;100.00
64933;BME280;51446;53.850;10.662;2023-02-10T10:00:54;103208.00;;;5.19;100.00
64933;BME280;51446;53.850;10.662;2023-02-10T10:03:28;103218.75;;;5.24;100.00
64933;BME280;51446;53.850;10.662;2023-02-10T10:08:40;103223.66;;;5.43;100.00
64933;BME280;51446;53.850;10.662;2023-02-10T10:11:24;103229.38;;;5.49;100.00
64933;BME280;51446;53.850;10.662;2023-02-10T10:13:50;103223.22;;;5.48;100.00
64933;BME280;51446;53.850;10.662;2023-02-10T10:18:56;103226.94;;;5.06;100.00
64933;BME280;51446;53.850;10.662;2023-02-10T10:21:34;103229.59;;;5.18;100.00
64933;BME280;51446;53.850;10.662;2023-02-10T10:24:18;103242.31;;;4.81;100.00
64933;BME280;51446;53.850;10.662;2023-02-10T10:31:48;103227.50;;;5.02;100.00
64933;BME280;51446;53.850;10.662;2023-02-10T10:34:19;103222.84;;;4.98;100.00
64933;BME280;51446;53.850;10.662;2023-02-10T10:36:48;103219.22;;;4.96;100.00
64933;BME280;51446;53.850;10.662;2023-02-10T10:41:43;103225.69;;;5.01;100.00
64933;BME280;51446;53.850;10.662;2023-02-10T10:44:12;103229.19;;;4.79;100.00
64933;BME280;51446;53.850;10.662;2023-02-10T10:46:45;103229.69;;;4.85;100.00
64933;BME280;51446;53.850;10.662;2023-02-10T10:49:12;103232.72;;;4.80;100.00
64933;BME280;51446;53.850;10.662;2023-02-10T10:51:37;103233.31;;;4.88;100.00
64933;BME280;51446;53.850;10.662;2023-02-10T10:54:04;103236.09;;;4.79;100.00
64933;BME280;51446;53.850;10.662;2023-02-10T10:56:40;103241.47;;;4.70;100.00
64933;BME280;51446;53.850;10.662;2023-02-10T10:59:18;103238.75;;;4.68;100.00
64933;BME280;51446;53.850;10.662;2023-02-10T11:01:46;103244.50;;;4.64;100.00
64933;BME280;51446;53.850;10.662;2023-02-10T11:04:21;103239.94;;;4.84;100.00
64933;BME280;51446;53.850;10.662;2023-02-10T11:06:50;103239.53;;;4.67;100.00
64933;BME280;51446;53.850;10.662;2023-02-10T11:12:01;103242.38;;;4.71;100.00
64933;BME280;51446;53.850;10.662;2023-02-10T11:14:28;103241.41;;;4.58;100.00
64933;BME280;51446;53.850;10.662;2023-02-10T11:16:58;103241.66;;;4.61;100.00
64933;BME280;51446;53.850;10.662;2023-02-10T11:19:29;103236.38;;;4.49;100.00
64933;BME280;51446;53.850;10.662;2023-02-10T11:21:55;103230.25;;;4.49;100.00
64933;BME280;51446;53.850;10.662;2023-02-10T11:24:29;103229.91;;;4.44;100.00
64933;BME280;51446;53.850;10.662;2023-02-10T11:27:00;103222.69;;;4.52;100.00
64933;BME280;51446;53.850;10.662;2023-02-10T11:29:28;103217.16;;;4.69;100.00
64933;BME280;51446;53.850;10.662;2023-02-10T11:31:54;103216.84;;;4.55;100.00
64933;BME280;51446;53.850;10.662;2023-02-10T11:34:42;103215.31;;;4.57;100.00
64933;BME280;51446;53.850;10.662;2023-02-10T11:37:12;103215.31;;;4.57;100.00
64933;BME280;51446;53.850;10.662;2023-02-10T11:39:40;103216.25;;;4.69;100.00
64933;BME280;51446;53.850;10.662;2023-02-10T11:42:19;103210.41;;;5.06;100.00
64933;BME280;51446;53.850;10.662;2023-02-10T11:45:20;103199.13;;;5.39;100.00
64933;BME280;51446;53.850;10.662;2023-02-10T11:47:46;103199.81;;;5.60;100.00
64933;BME280;51446;53.850;10.662;2023-02-10T11:50:27;103194.66;;;5.96;100.00
64933;BME280;51446;53.850;10.662;2023-02-10T11:52:52;103195.00;;;6.00;100.00
64933;BME280;51446;53.850;10.662;2023-02-10T11:55:18;103185.28;;;6.10;100.00
64933;BME280;51446;53.850;10.662;2023-02-10T11:57:56;103180.72;;;6.19;100.00
64933;BME280;51446;53.850;10.662;2023-02-10T12:01:09;103173.72;;;6.06;100.00
64933;BME280;51446;53.850;10.662;2023-02-10T12:03:56;103173.25;;;6.23;100.00
64933;BME280;51446;53.850;10.662;2023-02-10T12:06:30;103167.94;;;6.10;100.00
64933;BME280;51446;53.850;10.662;2023-02-10T12:09:07;103161.38;;;6.15;100.00
64933;BME280;51446;53.850;10.662;2023-02-10T12:12:04;103160.25;;;6.12;100.00
64933;BME280;51446;53.850;10.662;2023-02-10T12:20:33;103131.97;;;6.41;100.00
64933;BME280;51446;53.850;10.662;2023-02-10T12:23:15;103122.72;;;6.84;100.00
64933;BME280;51446;53.850;10.662;2023-02-10T12:36:38;103115.06;;;6.11;100.00
64933;BME280;51446;53.850;10.662;2023-02-10T12:39:22;103129.56;;;6.07;100.00
64933;BME280;51446;53.850;10.662;2023-02-10T12:47:48;103122.75;;;5.98;100.00
64933;BME280;51446;53.850;10.662;2023-02-10T12:50:46;103113.13;;;5.97;100.00
64933;BME280;51446;53.850;10.662;2023-02-10T12:53:17;103105.88;;;5.93;100.00
64933;BME280;51446;53.850;10.662;2023-02-10T12:55:58;103120.59;;;5.80;100.00
64933;BME280;51446;53.850;10.662;2023-02-10T12:58:46;103115.88;;;5.86;100.00
64933;BME280;51446;53.850;10.662;2023-02-10T13:01:26;103118.47;;;5.98;100.00
64933;BME280;51446;53.850;10.662;2023-02-10T13:04:02;103104.44;;;6.08;100.00
64933;BME280;51446;53.850;10.662;2023-02-10T13:06:38;103112.22;;;5.84;100.00
64933;BME280;51446;53.850;10.662;2023-02-10T13:09:11;103112.16;;;5.59;100.00
64933;BME280;51446;53.850;10.662;2023-02-10T13:12:35;103102.03;;;5.76;100.00
64933;BME280;51446;53.850;10.662;2023-02-10T13:14:37;103101.38;;;5.66;100.00
64933;BME280;51446;53.850;10.662;2023-02-10T13:17:04;103097.88;;;5.54;100.00
64933;BME280;51446;53.850;10.662;2023-02-10T13:19:43;103097.66;;;5.51;100.00
64933;BME280;51446;53.850;10.662;2023-02-10T13:25:12;103089.25;;;5.79;100.00
64933;BME280;51446;53.850;10.662;2023-02-10T13:30:27;103091.50;;;5.86;100.00
64933;BME280;51446;53.850;10.662;2023-02-10T13:35:52;103084.19;;;6.29;100.00
64933;BME280;51446;53.850;10.662;2023-02-10T13:38:19;103082.25;;;6.38;100.00
64933;BME280;51446;53.850;10.662;2023-02-10T13:40:53;103073.25;;;6.47;100.00
64933;BME280;51446;53.850;10.662;2023-02-10T13:43:39;103065.75;;;6.51;100.00
64933;BME280;51446;53.850;10.662;2023-02-10T13:46:05;103049.38;;;6.66;100.00
64933;BME280;51446;53.850;10.662;2023-02-10T13:48:34;103046.31;;;6.85;100.00
64933;BME280;51446;53.850;10.662;2023-02-10T13:51:02;103043.63;;;6.97;100.00
64933;BME280;51446;53.850;10.662;2023-02-10T14:04:03;103017.63;;;7.11;100.00
64933;BME280;51446;53.850;10.662;2023-02-10T14:06:38;103017.34;;;7.07;100.00